Cliff Park, New Jersey
Current Conditions -  °F | °C
As of 5:51 PM on Friday 19 Dec 2014 (Local Time) from KNYC Reporting Station
Broken Clouds Broken Clouds  
Wind Chill: 25°   Ceiling: 3200
Heat Index: 33°   Visibility: 10mi
Dew Point: 19°   Wind: 9mph
Humidity: 56%   Direction: 300°WNW
Pressure: 30.14"   Gusts: 20mph
Location:  40.822°N, 73.988°W
Report Text: KNYC 192251Z AUTO 30008G17KT 250V340 10SM BKN032 01/M07 A3014 RMK AO2 SLP198 T00061072
Loading
Personal Weather Stations






























Interactive Weather Map New forecast layout! Learn more

10-Day Weather Forecast

Advertisements
Track Severe Weather on mobile